Tiempo atmosférico en la estación meteorológica de Ibias, San Antolin, Asturias (762 m.)



Fecha
DESCASC
Temp. máxima en grados centígrados (hora)
DESCASC
Temp. mínima en grados centígrados (hora)
DESCASC
Temp. media en grados centígrados
DESCASC
Racha de viento máxima en m/sg (hora)
DESCASC
Velocidad máxima media en intervalos de 10 minutos(hora)
DESCASC
Precipitaciones diarias en mm
DESCASC
Precipitaciones de 00:00 a 06:00 en mm
DESCASC
Precipitaciones de 06:00 a 12:00 en mm
DESCASC
Precipitaciones de 12:00 a 18:00 en mm
DESCASC
Precipitaciones de 18:00 a 24:00 en mm
DESCASC
10-07-2020 21.9 (14:30) 11.8 (03:50) 16.8 9.17 (21:00) 5.56 (23:30) 0 0 0 0 0
09-07-2020 26.9 (16:50) 14 (07:00) 20.4 7.22 (18:30) 3.61 (00:30) 0 0 0 0 0
08-07-2020 25.4 (16:30) 13.8 (02:20) 19.6 8.61 (18:40) 5.28 (18:40) 12.6 0 0 0 12.6
07-07-2020 28.1 (18:00) 11.4 (06:00) 19.8 6.67 (15:50) 4.17 (15:50) 0 0 0 0 0
06-07-2020 22.9 (16:50) 13.5 (00:00) 18.2 9.72 (12:30) 6.39 (12:10) 0.2 0 0 0 0.2
05-07-2020 29.6 (15:10) 14.3 (00:00) 22 7.5 (15:20) 3.89 (18:40) 0 0 0 0 0
04-07-2020 28.9 (17:50) 9.3 (00:00) 19.1 6.11 (20:20) 3.33 (20:20) 0 0 0 0 0
03-07-2020 23.8 (17:30) 7.7 (06:30) 15.7 7.78 (15:30) 3.61 (19:10) 0 0 0 0 0
02-07-2020 18.7 (17:20) 10.4 (00:00) 14.6 7.78 (15:00) 4.17 (03:30) 0 0 0 0 0
01-07-2020 21.5 (16:20) 13.9 (00:00) 17.7 9.44 (13:20) 6.67 (16:50) 0 0 0 0 0
30-06-2020 28.5 (16:00) 12.4 (00:00) 20.4 6.67 (19:00) 3.61 (20:10) 0 0 0 0 0
29-06-2020 25.1 (18:10) 12.9 (00:00) 19 7.78 (14:10) 3.61 (15:40) 0.6 0.4 0.2 0 0
28-06-2020 19.6 (13:00) 12.3 (00:00) 16 9.17 (11:50) 5.28 (11:50) 0.4 0 0 0 0.4
27-06-2020 21 (18:50) 14.4 (00:00) 17.7 13.61 (14:50) 9.44 (14:50) 0 0 0 0 0
26-06-2020 21.5 (14:40) 12.5 (00:00) 17 10 (16:30) 7.22 (22:00) 0 0 0 0 0
25-06-2020 24.9 (15:50) 13.3 (00:00) 19.1 6.94 (15:50) 3.61 (15:40) 0.2 0 0.2 0 0
24-06-2020 30.1 (15:30) 17.8 (00:00) 23.9 14.17 (20:50) 9.17 (20:50) 0 0 0 0 0
23-06-2020 33 (16:30) 17.5 (00:00) 25.3 9.17 (17:00) 6.11 (17:00) 0 0 0 0 0
22-06-2020 29.7 (17:50) 11.1 (00:00) 20.4 6.11 (16:30) 3.33 (21:50) 0 0 0 0 0
21-06-2020 22.5 (18:40) 10.8 (00:00) 16.7 7.5 (02:50) 5.83 (02:50) 0 0 0 0 0
20-06-2020 24.3 (17:30) 12.1 (00:00) 18.2 11.39 (15:50) 7.22 (22:20) 0 0 0 0 0
19-06-2020 22 (16:50) 8.5 (00:00) 15.3 8.33 (17:50) 5.28 (17:50) 0 0 0 0 0
18-06-2020 19.5 (18:20) 8.6 (00:00) 14.1 8.06 (17:40) 5.56 (16:20) 0 0 0 0 0
17-06-2020 13.6 (16:20) 9.1 (00:00) 11.4 5.83 (13:30) 3.89 (17:10) 2.4 1 0.2 1.2 0
16-06-2020 13.5 (14:50) 10.2 (00:00) 11.8 11.11 (16:20) 6.94 (16:30) 5.2 1.4 3.4 0.4 0
15-06-2020 15.3 (15:50) 9.7 (00:00) 12.5 10.56 (16:30) 6.94 (16:30) 0 0 0 0 0
14-06-2020 13.9 (14:20) 8.9 (00:00) 11.4 11.39 (13:50) 7.78 (13:50) 0.6 0 0.2 0.2 0.2
13-06-2020 12.7 (17:20) 8.4 (00:00) 10.5 13.89 (05:30) 9.17 (13:30) 2 0.2 1 0.8 0
12-06-2020 13.4 (18:00) 6.8 (00:00) 10.1 18.61 (01:00) 11.67 (01:00) 12.8 5.2 2.2 4.6 0.8

Gráficas

Temp. máximas Temp. mínimas Temp. medias Precipitaciones Rachas de viento máximas Velocidades máximas media en intervalos de 10 minutos

Datos horarios

Fecha y hora oficial Temperatura (ºC) Velocidad del viento (km/h) Dirección del viento Racha (km/h) Dirección de racha Precipitación (mm) Presión (hPa) Tendencia (hPa) Humedad (%)
2020-07-11 23:00:00 17.7 7 Nordeste 18 Norte 0 -- -- 81
2020-07-11 22:00:00 19.3 10 Norte 24 Norte 0 -- -- 75
2020-07-11 21:00:00 21 12 Norte 21 Norte 0 -- -- 70
2020-07-11 20:00:00 23.6 8 Norte 19 Norte 0 -- -- 61
2020-07-11 19:00:00 24.7 8 Nordeste 20 Nordeste 0 -- -- 57
2020-07-11 18:00:00 25.1 9 Nordeste 19 Norte 0 -- -- 56
2020-07-11 17:00:00 25.3 10 Norte 21 Norte 0 -- -- 55
2020-07-11 16:00:00 25 10 Norte 22 Norte 0 -- -- 55
2020-07-11 15:00:00 24.2 9 Norte 26 Nordeste 0 -- -- 56
2020-07-11 14:00:00 23.4 11 Nordeste 26 Norte 0 -- -- 56
2020-07-11 13:00:00 22.1 12 Nordeste 26 Este 0 -- -- 59
2020-07-11 12:00:00 20.8 13 Nordeste 27 Nordeste 0 -- -- 62
2020-07-11 11:00:00 19 10 Nordeste 23 Nordeste 0 -- -- 68
2020-07-11 10:00:00 17.1 11 Nordeste 16 Nordeste 0 -- -- 73
2020-07-11 09:00:00 15.3 9 Nordeste 23 Nordeste 0 -- -- 80
2020-07-11 08:00:00 13.2 12 Nordeste 19 Norte 0 -- -- 89
2020-07-11 07:00:00 11.7 10 Norte 17 Norte 0 -- -- 91
2020-07-11 06:00:00 12 11 Norte 15 Nordeste 0 -- -- 90
2020-07-11 05:00:00 12.4 11 Nordeste 24 Norte 0 -- -- 89
2020-07-11 04:00:00 12.6 15 Nordeste 28 Nordeste 0 -- -- 89
2020-07-11 03:00:00 12.6 13 Nordeste 27 Norte 0 -- -- 90
2020-07-11 02:00:00 12.8 12 Nordeste 33 Nordeste 0 -- -- 89
2020-07-11 01:00:00 12.6 13 Nordeste 25 Nordeste 0 -- -- 89
2020-07-11 00:00:00 12.9 15 Nordeste 28 Este 0 -- -- 89
2020-07-10 23:00:00 13.2 9 Este 32 Nordeste 0 -- -- 89
2020-07-10 22:00:00 14.3 17 Nordeste 32 Nordeste 0 -- -- 85
2020-07-10 21:00:00 15.9 18 Nordeste 33 Nordeste 0 -- -- 80
2020-07-10 20:00:00 17.4 18 Nordeste 29 Norte 0 -- -- 75
2020-07-10 19:00:00 19.5 15 Nordeste 30 Nordeste 0 -- -- 69
2020-07-10 18:00:00 20.6 15 Nordeste 28 Nordeste 0 -- -- 65
2020-07-10 17:00:00 21.5 15 Nordeste 31 Nordeste 0 -- -- 64
2020-07-10 16:00:00 21.4 13 Norte 33 Nordeste 0 -- -- 64
2020-07-10 15:00:00 21.9 12 Nordeste 28 Nordeste 0 -- -- 64
2020-07-10 14:00:00 21.6 12 Nordeste 27 Norte 0 -- -- 65
2020-07-10 13:00:00 20.8 9 Nordeste 24 Nordeste 0 -- -- 66
2020-07-10 12:00:00 19.8 10 Nordeste 23 Nordeste 0 -- -- 70
2020-07-10 11:00:00 17.5 9 Nordeste 19 Nordeste 0 -- -- 74
2020-07-10 10:00:00 15.7 9 Este 14 Este 0 -- -- 82
2020-07-10 09:00:00 13 6 Norte 11 Norte 0 -- -- 96
2020-07-10 08:00:00 12.1 4 Este 10 Norte 0 -- -- 97
2020-07-10 07:00:00 12 5 Nordeste 9 Norte 0 -- -- 97
2020-07-10 06:00:00 12 4 Nordeste 12 Norte 0 -- -- 97
2020-07-10 05:00:00 12 5 Nordeste 12 Noroeste 0 -- -- 96
2020-07-10 04:00:00 11.8 5 Nordeste 19 Norte 0 -- -- 95
2020-07-10 03:00:00 12.2 5 Norte 11 Norte 0 -- -- 92
2020-07-10 02:00:00 13.3 6 Norte 9 Sudeste 0 -- -- 87
2020-07-10 01:00:00 14.7 0 Calma 5 Oeste 0 -- -- 82
2020-07-10 00:00:00 14.9 6 Noroeste 11 Noroeste 0 -- -- 80
2020-07-09 23:00:00 16.5 4 Norte 13 Noroeste 0 -- -- 74
2020-07-09 22:00:00 18.5 5 Norte 14 Norte 0 -- -- 69
2020-07-09 21:00:00 21.3 9 Norte 23 Noroeste 0 -- -- 64
2020-07-09 20:00:00 23.4 8 Oeste 19 Noroeste 0 -- -- 59
2020-07-09 19:00:00 24.8 9 Noroeste 26 Noroeste 0 -- -- 57
2020-07-09 18:00:00 26.2 9 Noroeste 23 Noroeste 0 -- -- 54
2020-07-09 17:00:00 26.7 11 Noroeste 24 Noroeste 0 -- -- 55
2020-07-09 16:00:00 26.4 9 Noroeste 21 Norte 0 -- -- 57
2020-07-09 15:00:00 25.3 9 Nordeste 23 Nordeste 0 -- -- 59
2020-07-09 14:00:00 24.4 9 Nordeste 23 Nordeste 0 -- -- 66
2020-07-09 13:00:00 22.6 8 Nordeste 21 Nordeste 0 -- -- 68
2020-07-09 12:00:00 20.9 7 Nordeste 19 Noroeste 0 -- -- 74
2020-07-09 11:00:00 19 6 Este 11 Este 0 -- -- 87
2020-07-09 10:00:00 16.1 2 Nordeste 9 Noroeste 0 -- -- 96
2020-07-09 09:00:00 15.2 0 Calma 9 Norte 0 -- -- 99
2020-07-09 08:00:00 14.4 4 Nordeste 12 Norte 0 -- -- 99
2020-07-09 07:00:00 14 3 Este 10 Este 0 -- -- 99
2020-07-09 06:00:00 14.2 4 Nordeste 10 Noroeste 0 -- -- 99
2020-07-09 05:00:00 14.1 8 Nordeste 21 Noroeste 0 -- -- 98
2020-07-09 04:00:00 14.1 13 Norte 21 Norte 0 -- -- 98
2020-07-09 03:00:00 14.3 6 Norte 17 Norte 0 -- -- 96
2020-07-09 02:00:00 15.2 12 Norte 18 Norte 0 -- -- 96
2020-07-09 01:00:00 15.7 8 Nordeste 18 Este 0 -- -- 95
2020-07-09 00:00:00 16.5 13 Este 21 Este 0.6 -- -- 93
2020-07-08 23:00:00 16 10 Nordeste 18 Nordeste 0 -- -- 95
2020-07-08 22:00:00 16.5 8 Norte 22 Nordeste 0 -- -- 94
2020-07-08 21:00:00 17.2 2 Noroeste 18 Nordeste 11.4 -- -- 92
2020-07-08 20:00:00 18.8 6 Este 30 Nordeste 0.6 -- -- 84
2020-07-08 19:00:00 22.9 14 Nordeste 31 Nordeste 0 -- -- 63
2020-07-08 18:00:00 24.8 13 Nordeste 27 Norte 0 -- -- 58
2020-07-08 17:00:00 24.6 15 Nordeste 29 Norte 0 -- -- 57
2020-07-08 16:00:00 25.2 14 Nordeste 25 Nordeste 0 -- -- 56
2020-07-08 15:00:00 24.9 11 Nordeste 21 Nordeste 0 -- -- 58
2020-07-08 14:00:00 23.7 11 Nordeste 24 Nordeste 0 -- -- 62
2020-07-08 13:00:00 22.3 12 Nordeste 23 Este 0 -- -- 67
2020-07-08 12:00:00 20.8 7 Nordeste 20 Nordeste 0 -- -- 73
2020-07-08 11:00:00 17.4 6 Este 12 Nordeste 0 -- -- 87
2020-07-08 10:00:00 14.9 4 Nordeste 8 Nordeste 0 -- -- 97
2020-07-08 09:00:00 14.2 2 Nordeste 8 Nordeste 0 -- -- 99
2020-07-08 08:00:00 14 5 Este 9 Nordeste 0 -- -- 98
2020-07-08 07:00:00 14 0 Calma 8 Norte 0 -- -- 98
2020-07-08 06:00:00 13.9 0 Calma 10 Norte 0 -- -- 98
2020-07-08 05:00:00 13.9 5 Norte 11 Norte 0 -- -- 98
2020-07-08 04:00:00 14 0 Calma 11 Nordeste 0 -- -- 97
2020-07-08 03:00:00 14 6 Nordeste 12 Nordeste 0 -- -- 97
2020-07-08 02:00:00 14 6 Nordeste 9 Nordeste 0 -- -- 94
2020-07-08 01:00:00 14.7 6 Este 8 Este 0 -- -- 92
2020-07-08 00:00:00 15.9 7 Este 9 Nordeste 0 -- -- 88
2020-07-07 23:00:00 17.7 6 Nordeste 8 Este 0 -- -- 81
2020-07-07 22:00:00 20.3 6 Este 9 Este 0 -- -- 72
2020-07-07 21:00:00 24.4 3 Nordeste 8 Norte 0 -- -- 60
2020-07-07 20:00:00 26.2 4 Norte 11 Norte 0 -- -- 56
2020-07-07 19:00:00 27.2 5 Nordeste 12 Nordeste 0 -- -- 55
2020-07-07 18:00:00 28.1 7 Nordeste 18 Nordeste 0 -- -- 52
2020-07-07 17:00:00 27.6 10 Nordeste 21 Nordeste 0 -- -- 54
2020-07-07 16:00:00 26.8 13 Nordeste 24 Nordeste 0 -- -- 55
2020-07-07 15:00:00 26.3 14 Este 23 Nordeste 0 -- -- 56
2020-07-07 14:00:00 24.4 9 Este 17 Nordeste 0 -- -- 60
2020-07-07 13:00:00 22.3 10 Este 18 Nordeste 0 -- -- 65
2020-07-07 12:00:00 20.1 11 Nordeste 20 Nordeste 0 -- -- 70
2020-07-07 11:00:00 17.8 7 Este 15 Nordeste 0 -- -- 78
2020-07-07 10:00:00 15.5 6 Este 12 Este 0 -- -- 84
2020-07-07 09:00:00 13.5 4 Este 10 Nordeste 0 -- -- 96
2020-07-07 08:00:00 12.2 4 Nordeste 12 Noroeste 0 -- -- 99
2020-07-07 07:00:00 11.4 7 Norte 14 Norte 0 -- -- 98
2020-07-07 06:00:00 11.4 7 Norte 13 Norte 0 -- -- 97
2020-07-07 05:00:00 11.7 6 Nordeste 10 Norte 0 -- -- 97
2020-07-07 04:00:00 12.1 7 Norte 10 Norte 0 -- -- 95
2020-07-07 03:00:00 12.2 4 Nordeste 10 Norte 0 -- -- 95
2020-07-07 02:00:00 12.6 6 Nordeste 12 Norte 0 -- -- 93
2020-07-07 01:00:00 13.2 3 Nordeste 14 Norte 0 -- -- 91
2020-07-07 00:00:00 13.5 6 Nordeste 11 Norte 0 -- -- 92
2020-07-06 23:00:00 14 9 Norte 14 Norte 0 -- -- 89
2020-07-06 22:00:00 14.8 10 Nordeste 17 Nordeste 0.2 -- -- 86
2020-07-06 21:00:00 16.7 7 Nordeste 21 Norte 0 -- -- 79
2020-07-06 20:00:00 18.4 12 Norte 26 Norte 0 -- -- 73
2020-07-06 19:00:00 20.8 12 Norte 25 Norte 0 -- -- 67
2020-07-06 18:00:00 22 10 Norte 22 Norte 0 -- -- 64
2020-07-06 17:00:00 22.8 13 Norte 30 Norte 0 -- -- 61
2020-07-06 16:00:00 22.5 10 Nordeste 32 Nordeste 0 -- -- 62
2020-07-06 15:00:00 22.1 12 Nordeste 32 Nordeste 0 -- -- 63
2020-07-06 14:00:00 22.4 14 Nordeste 32 Nordeste 0 -- -- 63
2020-07-06 13:00:00 22.2 15 Nordeste 35 Nordeste 0 -- -- 63
2020-07-06 12:00:00 21.3 18 Nordeste 31 Nordeste 0 -- -- 66
2020-07-06 11:00:00 19.8 15 Nordeste 29 Nordeste 0 -- -- 74
2020-07-06 10:00:00 17.5 12 Nordeste 21 Nordeste 0 -- -- 83
2020-07-06 09:00:00 16.8 9 Nordeste 17 Norte 0 -- -- 88
2020-07-06 08:00:00 15.1 7 Nordeste 19 Norte 0 -- -- 98
2020-07-06 07:00:00 14 10 Norte 18 Norte 0 -- -- 98
2020-07-06 06:00:00 14.2 9 Norte 16 Norte 0 -- -- 98
2020-07-06 05:00:00 14.3 5 Nordeste 19 Nordeste 0 -- -- 98
2020-07-06 04:00:00 14.3 11 Norte 20 Nordeste 0 -- -- 97
2020-07-06 03:00:00 14.1 5 Nordeste 8 Norte 0 -- -- 96
2020-07-06 02:00:00 14.9 0 Calma 9 Norte 0 -- -- 93
2020-07-06 01:00:00 15.5 4 Nordeste 12 Nordeste 0 -- -- 92
2020-07-06 00:00:00 16.4 0 Calma 9 Este 0 -- -- 90
2020-07-05 23:00:00 17.2 4 Este 19 Nordeste 0 -- -- 86
2020-07-05 22:00:00 19.7 10 Nordeste 17 Noroeste 0 -- -- 76
2020-07-05 21:00:00 23.3 8 Norte 19 Norte 0 -- -- 65
2020-07-05 20:00:00 25.9 7 Norte 25 Noroeste 0 -- -- 58
2020-07-05 19:00:00 26.8 12 Noroeste 23 Noroeste 0 -- -- 55
2020-07-05 18:00:00 28.2 12 Noroeste 22 Noroeste 0 -- -- 54
2020-07-05 17:00:00 29.6 8 Norte 21 Noroeste 0 -- -- 51
2020-07-05 16:00:00 29.5 8 Norte 27 Norte 0 -- -- 49
2020-07-05 15:00:00 29.3 10 Nordeste 24 Nordeste 0 -- -- 48
2020-07-05 14:00:00 27.2 8 Sudeste 18 Este 0 -- -- 53
2020-07-05 13:00:00 25.2 9 Este 15 Este 0 -- -- 59
2020-07-05 12:00:00 23.2 6 Nordeste 12 Nordeste 0 -- -- 64
2020-07-05 11:00:00 21 6 Nordeste 10 Nordeste 0 -- -- 72
2020-07-05 10:00:00 18.5 0 Calma 6 Este 0 -- -- 79
2020-07-05 09:00:00 16.3 0 Calma 4 Este 0 -- -- 85
2020-07-05 08:00:00 15.2 0 Calma 7 Nordeste 0 -- -- 87
2020-07-05 07:00:00 14.5 5 Nordeste 6 Este 0 -- -- 89
2020-07-05 06:00:00 15.5 0 Calma 3 Sur 0 -- -- 82
2020-07-05 05:00:00 15.3 0 Calma 5 Este 0 -- -- 84
2020-07-05 04:00:00 15.3 5 Nordeste 8 Nordeste 0 -- -- 83
2020-07-05 03:00:00 15.8 5 Este 6 Este 0 -- -- 81
2020-07-05 02:00:00 16.8 4 Este 6 Norte 0 -- -- 76
2020-07-05 01:00:00 16.8 4 Nordeste 8 Este 0 -- -- 75
2020-07-05 00:00:00 17.5 0 Calma 5 Nordeste 0 -- -- 73
2020-07-04 23:00:00 18.6 0 Calma 9 Norte 0 -- -- 70
2020-07-04 22:00:00 19.9 0 Calma 18 Noroeste 0 -- -- 65
2020-07-04 21:00:00 21.5 6 Oeste 22 Oeste 0 -- -- 58
2020-07-04 20:00:00 24 11 Noroeste 21 Noroeste 0 -- -- 55
2020-07-04 19:00:00 26.2 8 Noroeste 19 Nordeste 0 -- -- 52
2020-07-04 18:00:00 28.6 7 Norte 16 Nordeste 0 -- -- 39
2020-07-04 17:00:00 28.6 9 Nordeste 20 Norte 0 -- -- 39
2020-07-04 16:00:00 27.7 4 Este 17 Nordeste 0 -- -- 41
2020-07-04 15:00:00 26.9 10 Este 18 Nordeste 0 -- -- 40
2020-07-04 14:00:00 24.4 9 Este 18 Este 0 -- -- 44
2020-07-04 13:00:00 22.6 7 Nordeste 13 Nordeste 0 -- -- 52
2020-07-04 12:00:00 20.2 4 Nordeste 9 Nordeste 0 -- -- 55
2020-07-04 11:00:00 16.9 0 Calma 11 Oeste 0 -- -- 76
2020-07-04 10:00:00 14.7 3 Nordeste 7 Nordeste 0 -- -- 79
2020-07-04 09:00:00 12.2 3 Nordeste 6 Oeste 0 -- -- 95
2020-07-04 08:00:00 10.6 4 Nordeste 7 Nordeste 0 -- -- 98
2020-07-04 07:00:00 9.5 2 Noroeste 5 Oeste 0 -- -- 99
2020-07-04 06:00:00 9.7 0 Calma 8 Este 0 -- -- 98
2020-07-04 05:00:00 9.9 5 Nordeste 7 Este 0 -- -- 97
2020-07-04 04:00:00 10 5 Nordeste 10 Norte 0 -- -- 96
2020-07-04 03:00:00 10.5 7 Nordeste 11 Nordeste 0 -- -- 95
2020-07-04 02:00:00 11.4 5 Este 12 Norte 0 -- -- 95
2020-07-04 01:00:00 11 6 Nordeste 9 Este 0 -- -- 94
2020-07-04 00:00:00 11.5 7 Nordeste 8 Este 0 -- -- 90
2020-07-03 23:00:00 13.3 3 Este 10 Oeste 0 -- -- 84
2020-07-03 22:00:00 15.8 3 Oeste 9 Noroeste 0 -- -- 74
2020-07-03 21:00:00 18.9 2 Norte 15 Oeste 0 -- -- 65
2020-07-03 20:00:00 19.5 11 Noroeste 23 Noroeste 0 -- -- 63
2020-07-03 19:00:00 21.1 10 Norte 21 Noroeste 0 -- -- 58
2020-07-03 18:00:00 23.2 8 Norte 18 Nordeste 0 -- -- 49
2020-07-03 17:00:00 23.4 6 Este 19 Nordeste 0 -- -- 39
2020-07-03 16:00:00 22.5 5 Sudoeste 28 Sudoeste 0 -- -- 37
2020-07-03 15:00:00 21.2 4 Este 14 Nordeste 0 -- -- 44
2020-07-03 14:00:00 19.5 7 Nordeste 19 Nordeste 0 -- -- 49
2020-07-03 13:00:00 17.9 10 Este 19 Nordeste 0 -- -- 55
2020-07-03 12:00:00 16.5 10 Nordeste 22 Nordeste 0 -- -- 56
2020-07-03 11:00:00 14.6 10 Nordeste 19 Nordeste 0 -- -- 69
2020-07-03 10:00:00 12.7 7 Este 14 Este 0 -- -- 75
2020-07-03 09:00:00 11 4 Nordeste 13 Nordeste 0 -- -- 83
2020-07-03 08:00:00 9.5 3 Nordeste 8 Nordeste 0 -- -- 95
2020-07-03 07:00:00 8 3 Nordeste 9 Norte 0 -- -- 95
2020-07-03 06:00:00 8.2 4 Norte 16 Norte 0 -- -- 94
2020-07-03 05:00:00 8.5 8 Norte 15 Norte 0 -- -- 94
2020-07-03 04:00:00 8.8 5 Norte 13 Norte 0 -- -- 92
2020-07-03 03:00:00 10 9 Norte 12 Nordeste 0 -- -- 89
2020-07-03 02:00:00 10.3 6 Norte 10 Norte 0 -- -- 88
2020-07-03 01:00:00 10.2 5 Norte 10 Noroeste 0 -- -- 86
2020-07-03 00:00:00 11 5 Norte 16 Nordeste 0 -- -- 83
2020-07-02 23:00:00 11.4 5 Nordeste 15 Norte 0 -- -- 80
2020-07-02 22:00:00 11.9 4 Nordeste 19 Norte 0 -- -- 78
2020-07-02 21:00:00 12.6 6 Nordeste 19 Norte 0 -- -- 76
2020-07-02 20:00:00 14.5 6 Nordeste 23 Noroeste 0 -- -- 70
2020-07-02 19:00:00 14.5 6 Norte 27 Norte 0 -- -- 70
2020-07-02 18:00:00 17.5 9 Norte 28 Nordeste 0 -- -- 65
2020-07-02 17:00:00 18.3 8 Norte 24 Nordeste 0 -- -- 61
2020-07-02 16:00:00 17.2 4 Nordeste 27 Oeste 0 -- -- 63
2020-07-02 15:00:00 17.6 12 Oeste 28 Oeste 0 -- -- 66
2020-07-02 14:00:00 17.3 6 Sudeste 24 Oeste 0 -- -- 62
2020-07-02 13:00:00 16.5 5 Sur 15 Sudoeste 0 -- -- 65
2020-07-02 12:00:00 15.1 0 Calma 20 Sudeste 0 -- -- 68
2020-07-02 11:00:00 13.9 6 Sudoeste 14 Oeste 0 -- -- 72
2020-07-02 10:00:00 12.6 2 Nordeste 8 Nordeste 0 -- -- 81
2020-07-02 09:00:00 11.7 3 Nordeste 6 Nordeste 0 -- -- 87
2020-07-02 08:00:00 11.1 3 Oeste 5 Oeste 0 -- -- 88
2020-07-02 07:00:00 10.5 3 Sudoeste 10 Noroeste 0 -- -- 90
2020-07-02 06:00:00 10.7 5 Oeste 14 Sudoeste 0 -- -- 90
2020-07-02 05:00:00 11 12 Sudoeste 17 Sudoeste 0 -- -- 94
2020-07-02 04:00:00 11.3 13 Oeste 18 Oeste 0 -- -- 96
2020-07-02 03:00:00 12.3 10 Oeste 14 Oeste 0 -- -- 91
2020-07-02 02:00:00 12.9 6 Oeste 14 Oeste 0 -- -- 90
2020-07-02 01:00:00 13.2 8 Oeste 18 Oeste 0 -- -- 90
2020-07-02 00:00:00 13.9 13 Oeste 19 Oeste 0 -- -- 91
2020-07-01 23:00:00 15 11 Oeste 17 Oeste 0 -- -- 87
2020-07-01 22:00:00 16.9 12 Oeste 23 Sudoeste 0 -- -- 80
2020-07-01 21:00:00 18.5 9 Oeste 21 Oeste 0 -- -- 72
2020-07-01 20:00:00 19.1 10 Oeste 24 Oeste 0 -- -- 70
2020-07-01 19:00:00 19.9 11 Oeste 26 Sudoeste 0 -- -- 69
2020-07-01 18:00:00 20.5 20 Oeste 30 Oeste 0 -- -- 65
2020-07-01 17:00:00 21.4 19 Oeste 33 Oeste 0 -- -- 64
2020-07-01 16:00:00 20.6 10 Sudoeste 31 Sur 0 -- -- 68
2020-07-01 15:00:00 20.9 6 Oeste 30 Sudoeste 0 -- -- 67
2020-07-01 14:00:00 20.3 13 Sudoeste 34 Sudoeste 0 -- -- 67
2020-07-01 13:00:00 19.1 6 Sur 24 Oeste 0 -- -- 72
2020-07-01 12:00:00 18.8 13 Oeste 25 Oeste 0 -- -- 78
2020-07-01 11:00:00 18.1 9 Sudoeste 24 Sudoeste 0 -- -- 80
2020-07-01 10:00:00 17.8 11 Sudoeste 21 Sudoeste 0 -- -- 79
2020-07-01 09:00:00 16.6 12 Sudoeste 19 Sudoeste 0 -- -- 85
2020-07-01 08:00:00 15.5 4 Sudoeste 16 Oeste 0 -- -- 90
2020-07-01 07:00:00 15.4 13 Sudoeste 25 Oeste 0 -- -- 92
2020-07-01 06:00:00 15.1 8 Oeste 11 Noroeste 0 -- -- 94
2020-07-01 05:00:00 14.6 6 Oeste 11 Noroeste 0 -- -- 94
2020-07-01 04:00:00 15.6 0 Calma 5 Este 0 -- -- 90
2020-07-01 03:00:00 16.1 0 Calma 6 Este 0 -- -- 89
2020-07-01 02:00:00 16.3 3 Nordeste 5 Nordeste 0 -- -- 88
2020-07-01 01:00:00 16.1 2 Nordeste 8 Noroeste 0 -- -- 89
2020-07-01 00:00:00 16.6 2 Noroeste 6 Norte 0 -- -- 86
2020-06-30 23:00:00 16.9 6 Noroeste 10 Oeste 0 -- -- 86
2020-06-30 22:00:00 19.5 7 Oeste 13 Oeste 0 -- -- 78
2020-06-30 21:00:00 22.4 7 Oeste 23 Norte 0 -- -- 69
2020-06-30 20:00:00 23.7 13 Noroeste 22 Noroeste 0 -- -- 65
2020-06-30 19:00:00 25.7 12 Norte 24 Noroeste 0 -- -- 61
2020-06-30 18:00:00 27.3 8 Norte 20 Norte 0 -- -- 58
2020-06-30 17:00:00 27.7 10 Nordeste 19 Nordeste 0 -- -- 56
2020-06-30 16:00:00 28.5 9 Este 21 Este 0 -- -- 51
2020-06-30 15:00:00 27.3 5 Sudeste 17 Nordeste 0 -- -- 54
2020-06-30 14:00:00 25.7 5 Este 16 Nordeste 0 -- -- 58
2020-06-30 13:00:00 23.8 9 Nordeste 20 Nordeste 0 -- -- 62
2020-06-30 12:00:00 22 5 Nordeste 13 Nordeste 0 -- -- 66
2020-06-30 11:00:00 19.8 4 Nordeste 18 Norte 0 -- -- 70
2020-06-30 10:00:00 17.5 6 Noroeste 14 Noroeste 0 -- -- 77
2020-06-30 09:00:00 16.3 3 Nordeste 12 Noroeste 0 -- -- 75
2020-06-30 08:00:00 13.3 0 Calma 4 Oeste 0 -- -- 79
2020-06-30 07:00:00 12.5 0 Calma 6 Noroeste 0 -- -- 79
2020-06-30 06:00:00 12.6 0 Calma 12 Noroeste 0 -- -- 75
2020-06-30 05:00:00 12.5 6 Noroeste 9 Norte 0 -- -- 74
2020-06-30 04:00:00 12.5 7 Noroeste 12 Noroeste 0 -- -- 72
2020-06-30 03:00:00 13.1 3 Nordeste 9 Norte 0 -- -- 70
2020-06-30 02:00:00 13.6 0 Calma 9 Norte 0 -- -- 70
2020-06-30 01:00:00 14.3 5 Nordeste 6 Norte 0 -- -- 67
2020-06-30 00:00:00 15.3 4 Nordeste 12 Norte 0 -- -- 67
2020-06-29 23:00:00 15.9 8 Norte 14 Norte 0 -- -- 66
2020-06-29 22:00:00 17.7 5 Noroeste 14 Noroeste 0 -- -- 59
2020-06-29 21:00:00 20.8 8 Noroeste 22 Noroeste 0 -- -- 45
2020-06-29 20:00:00 23 10 Noroeste 20 Noroeste 0 -- -- 51
2020-06-29 19:00:00 24.4 10 Noroeste 22 Noroeste 0 -- -- 44
2020-06-29 18:00:00 24.8 7 Noroeste 20 Norte 0 -- -- 36
2020-06-29 17:00:00 24.5 8 Nordeste 22 Este 0 -- -- 47
2020-06-29 16:00:00 23.9 10 Nordeste 22 Nordeste 0 -- -- 53
2020-06-29 15:00:00 22.5 7 Sudeste 28 Nordeste 0 -- -- 60
2020-06-29 14:00:00 21.1 6 Sudeste 20 Sur 0 -- -- 66
2020-06-29 13:00:00 19.8 4 Sudeste 24 Este 0 -- -- 69
2020-06-29 12:00:00 18.4 6 Este 18 Nordeste 0 -- -- 81
2020-06-29 11:00:00 15.6 4 Este 12 Este 0 -- -- 96
2020-06-29 10:00:00 13.9 3 Este 8 Nordeste 0 -- -- 98
2020-06-29 09:00:00 13.6 2 Noroeste 8 Noroeste 0.2 -- -- 99
2020-06-29 08:00:00 13 4 Norte 8 Norte 0 -- -- 98
2020-06-29 07:00:00 13.1 3 Noroeste 12 Noroeste 0 -- -- 98
2020-06-29 06:00:00 13.3 4 Norte 13 Norte 0 -- -- 97
2020-06-29 05:00:00 13.5 6 Norte 14 Norte 0.2 -- -- 98
2020-06-29 04:00:00 14 6 Noroeste 10 Noroeste 0.2 -- -- 97
2020-06-29 03:00:00 14.6 0 Calma 10 Oeste 0 -- -- 97
2020-06-29 02:00:00 14.8 8 Oeste 9 Oeste 0 -- -- 95
2020-06-29 01:00:00 14.8 6 Oeste 8 Oeste 0 -- -- 95
2020-06-29 00:00:00 15 7 Oeste 11 Oeste 0 -- -- 94
2020-06-28 23:00:00 15.2 7 Sudoeste 13 Oeste 0 -- -- 94
2020-06-28 22:00:00 15.7 7 Oeste 22 Sudoeste 0 -- -- 94
2020-06-28 21:00:00 16.8 11 Oeste 18 Oeste 0.2 -- -- 91
2020-06-28 20:00:00 17.5 6 Norte 24 Oeste 0.2 -- -- 90
2020-06-28 19:00:00 18.3 11 Sudoeste 23 Sudoeste 0 -- -- 85
2020-06-28 18:00:00 17.6 13 Sudoeste 22 Oeste 0 -- -- 87
2020-06-28 17:00:00 18.7 12 Oeste 23 Sudoeste 0 -- -- 85
2020-06-28 16:00:00 19.3 10 Sudoeste 22 Sur 0 -- -- 82
2020-06-28 15:00:00 18.7 11 Sudoeste 21 Sudoeste 0 -- -- 90
2020-06-28 14:00:00 18.1 3 Sudoeste 26 Sur 0 -- -- 88
2020-06-28 13:00:00 19.6 17 Sudoeste 31 Sudoeste 0 -- -- 77
2020-06-28 12:00:00 18.1 15 Sudoeste 33 Sudoeste 0 -- -- 78
2020-06-28 11:00:00 17.3 14 Sudoeste 26 Sudoeste 0 -- -- 76
2020-06-28 10:00:00 15.6 11 Oeste 19 Oeste 0 -- -- 82
2020-06-28 09:00:00 13.6 2 Sudoeste 16 Este 0 -- -- 87
2020-06-28 08:00:00 13 0 Calma 8 Nordeste 0 -- -- 90
2020-06-28 07:00:00 12.3 2 Oeste 5 Oeste 0 -- -- 91
2020-06-28 06:00:00 12.4 5 Nordeste 7 Nordeste 0 -- -- 92
2020-06-28 05:00:00 12.8 0 Calma 9 Sudeste 0 -- -- 90
2020-06-28 04:00:00 12.9 3 Norte 18 Sudoeste 0 -- -- 91
2020-06-28 03:00:00 13.4 12 Sudoeste 18 Oeste 0 -- -- 90
2020-06-28 02:00:00 14.3 7 Sudoeste 25 Sudoeste 0 -- -- 87
2020-06-28 01:00:00 14.9 9 Sudoeste 21 Oeste 0 -- -- 88
2020-06-28 00:00:00 15.4 15 Oeste 26 Oeste 0 -- -- 88
2020-06-27 23:00:00 16.1 18 Sudoeste 32 Sudoeste 0 -- -- 86
2020-06-27 22:00:00 17.6 16 Sudoeste 33 Sudoeste 0 -- -- 76
2020-06-27 21:00:00 19.1 17 Sudoeste 36 Sudoeste 0 -- -- 73
2020-06-27 20:00:00 19.6 13 Oeste 36 Sudoeste 0 -- -- 73
2020-06-27 19:00:00 20.9 13 Sudoeste 36 Sudoeste 0 -- -- 70
2020-06-27 18:00:00 19.6 22 Sudoeste 32 Sur 0 -- -- 78
2020-06-27 17:00:00 17.9 12 Sudoeste 34 Sudoeste 0 -- -- 85
2020-06-27 16:00:00 17.9 19 Sudoeste 46 Sudoeste 0 -- -- 83
2020-06-27 15:00:00 19 26 Sudoeste 49 Sudoeste 0 -- -- 76
2020-06-27 14:00:00 19.9 29 Sudoeste 47 Sudoeste 0 -- -- 72
2020-06-27 13:00:00 18 20 Sudoeste 37 Sudoeste 0 -- -- 79
2020-06-27 12:00:00 16.7 17 Sudoeste 36 Sudoeste 0 -- -- 84
2020-06-27 11:00:00 16.6 16 Sudoeste 39 Sudoeste 0 -- -- 82
2020-06-27 10:00:00 15.8 19 Sudoeste 33 Sudoeste 0 -- -- 84
2020-06-27 09:00:00 15 16 Sudoeste 30 Sudoeste 0 -- -- 88
2020-06-27 08:00:00 14.6 9 Sur 31 Sudoeste 0 -- -- 92
2020-06-27 07:00:00 14.8 17 Sudoeste 27 Oeste 0 -- -- 89
2020-06-27 06:00:00 15.1 9 Sudoeste 37 Sudoeste 0 -- -- 86
2020-06-27 05:00:00 14.6 17 Sudoeste 35 Sudoeste 0 -- -- 91
2020-06-27 04:00:00 15.2 20 Sudoeste 37 Sudoeste 0 -- -- 87
2020-06-27 03:00:00 15.2 28 Sudoeste 44 Sudoeste 0 -- -- 83
2020-06-27 02:00:00 15.4 24 Sudoeste 38 Sudoeste 0 -- -- 83
2020-06-27 01:00:00 15.5 19 Sudoeste 42 Sudoeste 0 -- -- 85
2020-06-27 00:00:00 15.7 18 Sudoeste 32 Sudoeste 0 -- -- 85
2020-06-26 23:00:00 15.8 10 Sudoeste 36 Sudoeste 0 -- -- 86
2020-06-26 22:00:00 17.1 26 Sudoeste 36 Sudoeste 0 -- -- 78
2020-06-26 21:00:00 17.8 13 Sudoeste 32 Sudoeste 0 -- -- 74
2020-06-26 20:00:00 18.6 15 Sudoeste 30 Sudoeste 0 -- -- 70
2020-06-26 19:00:00 19.3 20 Sudoeste 36 Sudoeste 0 -- -- 66
2020-06-26 18:00:00 20.6 21 Sudoeste 34 Sudoeste 0 -- -- 61
2020-06-26 17:00:00 19.8 15 Sudoeste 36 Sudoeste 0 -- -- 63
2020-06-26 16:00:00 20.7 17 Sudoeste 33 Sudoeste 0 -- -- 58
2020-06-26 15:00:00 20.5 18 Sudoeste 34 Sudoeste 0 -- -- 56
2020-06-26 14:00:00 20.4 15 Sur 28 Sudoeste 0 -- -- 56
2020-06-26 13:00:00 19 14 Sudoeste 32 Sudoeste 0 -- -- 66
2020-06-26 12:00:00 18.2 13 Sudoeste 27 Sudoeste 0 -- -- 66
2020-06-26 11:00:00 16.5 5 Nordeste 17 Sudoeste 0 -- -- 78
2020-06-26 10:00:00 13.3 6 Sudoeste 29 Sudoeste 0 -- -- 89
2020-06-26 09:00:00 13.6 9 Oeste 17 Oeste 0 -- -- 90
2020-06-26 08:00:00 12.9 2 Este 13 Sudoeste 0 -- -- 93
2020-06-26 07:00:00 12.6 6 Sudoeste 21 Oeste 0 -- -- 95
2020-06-26 06:00:00 12.6 7 Oeste 15 Oeste 0 -- -- 96
2020-06-26 05:00:00 12.8 4 Oeste 15 Oeste 0 -- -- 96
2020-06-26 04:00:00 12.9 14 Oeste 18 Oeste 0 -- -- 97
2020-06-26 03:00:00 13.4 8 Oeste 15 Oeste 0 -- -- 96
2020-06-26 02:00:00 13.6 9 Oeste 14 Oeste 0 -- -- 96
2020-06-26 01:00:00 13.7 6 Oeste 12 Oeste 0 -- -- 94
2020-06-26 00:00:00 14.2 11 Oeste 12 Oeste 0 -- -- 93
2020-06-25 23:00:00 15.7 2 Sudoeste 10 Oeste 0 -- -- 87
2020-06-25 22:00:00 16.7 7 Oeste 11 Oeste 0 -- -- 83
2020-06-25 21:00:00 18.2 4 Oeste 9 Noroeste 0 -- -- 77
2020-06-25 20:00:00 19.6 5 Norte 19 Noroeste 0 -- -- 72
2020-06-25 19:00:00 19.7 7 Norte 22 Nordeste 0 -- -- 76
2020-06-25 18:00:00 22.9 9 Norte 21 Norte 0 -- -- 69
2020-06-25 17:00:00 24.3 8 Oeste 21 Oeste 0 -- -- 66
2020-06-25 16:00:00 24.7 12 Oeste 25 Oeste 0 -- -- 66
2020-06-25 15:00:00 24.1 7 Noroeste 21 Noroeste 0 -- -- 64
2020-06-25 14:00:00 23.1 8 Noroeste 19 Noroeste 0 -- -- 70
2020-06-25 13:00:00 22 8 Nordeste 14 Nordeste 0 -- -- 75
2020-06-25 12:00:00 20.1 5 Nordeste 15 Oeste 0 -- -- 82
2020-06-25 11:00:00 16.2 2 Noroeste 13 Este 0.2 -- -- 96
2020-06-25 10:00:00 14.6 5 Oeste 14 Oeste 0 -- -- 99
2020-06-25 09:00:00 14 5 Norte 16 Oeste 0 -- -- 98
2020-06-25 08:00:00 13.4 0 Calma 6 Norte 0 -- -- 98
2020-06-25 07:00:00 13.5 4 Nordeste 8 Nordeste 0 -- -- 98
2020-06-25 06:00:00 13.8 3 Nordeste 6 Nordeste 0 -- -- 97
2020-06-25 05:00:00 14.2 0 Calma 6 Nordeste 0 -- -- 96
2020-06-25 04:00:00 14.6 4 Norte 5 Norte 0 -- -- 93
2020-06-25 03:00:00 15.1 0 Calma 6 Noroeste 0 -- -- 93
2020-06-25 02:00:00 15.8 2 Oeste 5 Oeste 0 -- -- 81
2020-06-25 01:00:00 16.8 0 Calma 8 Oeste 0 -- -- 74
2020-06-25 00:00:00 18.3 3 Nordeste 22 Este 0 -- -- 65
2020-06-24 23:00:00 19.4 13 Este 33 Sudeste 0 -- -- 60
2020-06-24 22:00:00 19.2 17 Este 43 Sudeste 0 -- -- 63
2020-06-24 21:00:00 19.6 27 Sudeste 51 Sudeste 0 -- -- 66
2020-06-24 20:00:00 18.8 5 Sudoeste 22 Este 0 -- -- 75
2020-06-24 19:00:00 19.3 9 Este 49 Sur 0 -- -- 74
2020-06-24 18:00:00 20.9 17 Este 40 Nordeste 0 -- -- 63
2020-06-24 17:00:00 27.4 7 Norte 29 Oeste 0 -- -- 52
2020-06-24 16:00:00 29.8 18 Oeste 27 Oeste 0 -- -- 48
2020-06-24 15:00:00 29.4 3 Sur 26 Sudeste 0 -- -- 48
2020-06-24 14:00:00 28.8 6 Oeste 15 Oeste 0 -- -- 47
2020-06-24 13:00:00 27.2 10 Noroeste 20 Oeste 0 -- -- 53
2020-06-24 12:00:00 25.5 6 Nordeste 12 Norte 0 -- -- 61
2020-06-24 11:00:00 23.7 3 Este 8 Nordeste 0 -- -- 67
2020-06-24 10:00:00 21.8 4 Este 10 Noroeste 0 -- -- 71
2020-06-24 09:00:00 20.7 4 Oeste 8 Oeste 0 -- -- 73
2020-06-24 08:00:00 19.6 0 Calma 8 Oeste 0 -- -- 68
2020-06-24 07:00:00 17.9 5 Sudoeste 9 Oeste 0 -- -- 74
2020-06-24 06:00:00 19.9 3 Sudeste 10 Sudeste 0 -- -- 63
2020-06-24 05:00:00 20.1 0 Calma 6 Este 0 -- -- 63
2020-06-24 04:00:00 20.6 4 Sudeste 10 Sudeste 0 -- -- 61
2020-06-24 03:00:00 20.3 6 Nordeste 8 Nordeste 0 -- -- 63
2020-06-24 02:00:00 21.6 4 Sudoeste 13 Sudeste 0 -- -- 59
2020-06-24 01:00:00 23.4 6 Sudeste 13 Sudeste 0 -- -- 52
2020-06-24 00:00:00 24.3 9 Sudeste 13 Este 0 -- -- 49
2020-06-23 23:00:00 24.6 7 Norte 12 Norte 0 -- -- 49
2020-06-23 22:00:00 25.9 8 Norte 19 Nordeste 0 -- -- 42
2020-06-23 21:00:00 28.9 6 Norte 16 Norte 0 -- -- 44
2020-06-23 20:00:00 30.9 8 Norte 20 Sudoeste 0 -- -- 38
2020-06-23 19:00:00 31.9 15 Sudoeste 30 Oeste 0 -- -- 29
2020-06-23 18:00:00 32.1 13 Sudoeste 33 Sudoeste 0 -- -- 33
2020-06-23 17:00:00 32.3 22 Sudoeste 33 Oeste 0 -- -- 31
2020-06-23 16:00:00 32.6 9 Oeste 25 Sudoeste 0 -- -- 29
2020-06-23 15:00:00 31.1 7 Nordeste 16 Este 0 -- -- 35
2020-06-23 14:00:00 29.9 6 Nordeste 13 Nordeste 0 -- -- 47
2020-06-23 13:00:00 28.7 5 Nordeste 10 Este 0 -- -- 57
2020-06-23 12:00:00 27.2 3 Sur 9 Sudeste 0 -- -- 53
2020-06-23 11:00:00 25.1 3 Sur 13 Sur 0 -- -- 55
2020-06-23 10:00:00 22.9 5 Sudeste 12 Sur 0 -- -- 56
2020-06-23 09:00:00 21.3 4 Sudeste 10 Sudeste 0 -- -- 61
2020-06-23 08:00:00 19 0 Calma 11 Este 0 -- -- 61
2020-06-23 07:00:00 18 0 Calma 18 Sudeste 0 -- -- 64
2020-06-23 06:00:00 18.5 6 Sudeste 18 Sudeste 0 -- -- 63
2020-06-23 05:00:00 19.2 14 Sudeste 19 Este 0 -- -- 60
2020-06-23 04:00:00 19 14 Este 20 Este 0 -- -- 67
2020-06-23 03:00:00 18.1 11 Este 18 Este 0 -- -- 78
2020-06-23 02:00:00 18.3 8 Este 12 Este 0 -- -- 79
2020-06-23 01:00:00 19.2 5 Nordeste 10 Este 0 -- -- 75
2020-06-23 00:00:00 20.2 6 Este 9 Este 0 -- -- 72
2020-06-22 23:00:00 20.8 4 Nordeste 14 Norte 0 -- -- 66
2020-06-22 22:00:00 22.2 10 Nordeste 16 Nordeste 0 -- -- 61
2020-06-22 21:00:00 24.7 9 Norte 19 Norte 0 -- -- 60
2020-06-22 20:00:00 26.7 6 Noroeste 21 Norte 0 -- -- 57
2020-06-22 19:00:00 27.7 8 Norte 22 Noroeste 0 -- -- 57
2020-06-22 18:00:00 29.7 6 Norte 20 Norte 0 -- -- 45
2020-06-22 17:00:00 29.5 9 Nordeste 22 Este 0 -- -- 40
2020-06-22 16:00:00 28.8 11 Nordeste 19 Nordeste 0 -- -- 44
2020-06-22 15:00:00 27.1 8 Este 19 Sudoeste 0 -- -- 48
2020-06-22 14:00:00 25.3 5 Nordeste 10 Nordeste 0 -- -- 61
2020-06-22 13:00:00 23.3 4 Nordeste 11 Nordeste 0 -- -- 66
2020-06-22 12:00:00 20.5 5 Nordeste 12 Este 0 -- -- 76
2020-06-22 11:00:00 17.3 2 Sur 8 Oeste 0 -- -- 89
2020-06-22 10:00:00 14.4 4 Sudoeste 10 Oeste 0 -- -- 98
2020-06-22 09:00:00 12.7 2 Sudoeste 9 Oeste 0 -- -- 99
2020-06-22 08:00:00 11.6 6 Oeste 11 Oeste 0 -- -- 99
2020-06-22 07:00:00 11.3 0 Calma 9 Oeste 0 -- -- 99
2020-06-22 06:00:00 11.9 0 Calma 5 Nordeste 0 -- -- 99
2020-06-22 05:00:00 12.5 0 Calma 8 Nordeste 0 -- -- 99
2020-06-22 04:00:00 12.9 4 Nordeste 8 Este 0 -- -- 99
2020-06-22 03:00:00 13.1 5 Nordeste 12 Sudeste 0 -- -- 98
2020-06-22 02:00:00 13.7 6 Este 12 Este 0 -- -- 97
2020-06-22 01:00:00 13.6 4 Este 7 Este 0 -- -- 97
2020-06-22 00:00:00 14.2 4 Este 8 Norte 0 -- -- 94
2020-06-21 23:00:00 15.6 4 Norte 22 Noroeste 0 -- -- 89
2020-06-21 22:00:00 17.6 3 Oeste 23 Norte 0 -- -- 81
2020-06-21 21:00:00 20.5 8 Noroeste 17 Norte 0 -- -- 67
2020-06-21 20:00:00 22.3 9 Oeste 21 Oeste 0 -- -- 60
2020-06-21 19:00:00 22.3 14 Oeste 24 Oeste 0 -- -- 61
2020-06-21 18:00:00 22.2 14 Oeste 24 Sudoeste 0 -- -- 64
2020-06-21 17:00:00 22.1 14 Oeste 23 Oeste 0 -- -- 65
2020-06-21 16:00:00 19.8 17 Oeste 23 Oeste 0 -- -- 71
2020-06-21 15:00:00 20.4 12 Sudoeste 22 Sur 0 -- -- 69
2020-06-21 14:00:00 20.2 9 Oeste 19 Oeste 0 -- -- 68
2020-06-21 13:00:00 17.5 5 Nordeste 12 Nordeste 0 -- -- 74
2020-06-21 12:00:00 16 4 Nordeste 23 Sudoeste 0 -- -- 79
2020-06-21 11:00:00 15.2 5 Sur 14 Sur 0 -- -- 81
2020-06-21 10:00:00 13.8 8 Sudeste 19 Sudeste 0 -- -- 84
2020-06-21 09:00:00 12.8 9 Este 25 Sudoeste 0 -- -- 85
2020-06-21 08:00:00 12.2 5 Sur 18 Sudoeste 0 -- -- 87
2020-06-21 07:00:00 11.8 6 Sudoeste 16 Sudoeste 0 -- -- 88
2020-06-21 06:00:00 11.1 15 Sudoeste 22 Sudoeste 0 -- -- 91
2020-06-21 05:00:00 11.3 6 Sudoeste 12 Sudoeste 0 -- -- 88
2020-06-21 04:00:00 11.8 3 Sudoeste 20 Sudoeste 0 -- -- 87
2020-06-21 03:00:00 12.1 18 Sudoeste 27 Sudoeste 0 -- -- 86
2020-06-21 02:00:00 13.1 0 Calma 21 Sur 0 -- -- 82
2020-06-21 01:00:00 13.3 15 Sudoeste 23 Sudoeste 0 -- -- 80
2020-06-21 00:00:00 14.3 14 Sudoeste 32 Sudoeste 0 -- -- 74
2020-06-20 23:00:00 15.9 17 Sudoeste 35 Sudoeste 0 -- -- 71
2020-06-20 22:00:00 17.4 20 Sudoeste 30 Oeste 0 -- -- 72
2020-06-20 21:00:00 20 18 Oeste 35 Oeste 0 -- -- 64
2020-06-20 20:00:00 22.4 20 Oeste 28 Oeste 0 -- -- 54
2020-06-20 19:00:00 23.4 15 Sudoeste 32 Sur 0 -- -- 41
2020-06-20 18:00:00 23.9 15 Oeste 35 Oeste 0 -- -- 34
2020-06-20 17:00:00 23.7 12 Sudoeste 33 Oeste 0 -- -- 39
2020-06-20 16:00:00 23 18 Oeste 41 Oeste 0 -- -- 42
2020-06-20 15:00:00 22.8 16 Sudoeste 32 Oeste 0 -- -- 53
2020-06-20 14:00:00 22.1 20 Oeste 32 Oeste 0 -- -- 56
2020-06-20 13:00:00 21 8 Sur 25 Oeste 0 -- -- 59
2020-06-20 12:00:00 19.6 10 Noroeste 19 Noroeste 0 -- -- 65
2020-06-20 11:00:00 16.8 5 Este 11 Oeste 0 -- -- 76
2020-06-20 10:00:00 14.3 0 Calma 10 Nordeste 0 -- -- 83
2020-06-20 09:00:00 13 4 Sudoeste 15 Sudoeste 0 -- -- 88
2020-06-20 08:00:00 12.3 10 Sudoeste 18 Sudoeste 0 -- -- 90
2020-06-20 07:00:00 12.3 9 Sudoeste 16 Sudoeste 0 -- -- 90
2020-06-20 06:00:00 12.3 4 Sudoeste 13 Sudoeste 0 -- -- 92
2020-06-20 05:00:00 12.7 6 Sudoeste 9 Sudoeste 0 -- -- 90
2020-06-20 04:00:00 12.6 6 Sudoeste 11 Oeste 0 -- -- 92
2020-06-20 03:00:00 12.8 2 Sudoeste 9 Sudoeste 0 -- -- 89
2020-06-20 02:00:00 13 3 Oeste 7 Oeste 0 -- -- 88
2020-06-20 01:00:00 12.9 0 Calma 6 Oeste 0 -- -- 88
2020-06-20 00:00:00 13.4 3 Oeste 10 Noroeste 0 -- -- 86
2020-06-19 23:00:00 14.1 9 Oeste 17 Oeste 0 -- -- 83
2020-06-19 22:00:00 15.8 13 Oeste 24 Oeste 0 -- -- 75
2020-06-19 21:00:00 19.2 17 Oeste 23 Oeste 0 -- -- 59
2020-06-19 20:00:00 19.6 15 Oeste 29 Oeste 0 -- -- 51
2020-06-19 19:00:00 21.5 16 Oeste 28 Sudoeste 0 -- -- 47
2020-06-19 18:00:00 21.3 12 Sudoeste 30 Sudoeste 0 -- -- 44
2020-06-19 17:00:00 21.9 16 Oeste 29 Oeste 0 -- -- 38
2020-06-19 16:00:00 21.6 10 Oeste 22 Oeste 0 -- -- 45
2020-06-19 15:00:00 20.5 9 Oeste 25 Sudoeste 0 -- -- 47
2020-06-19 14:00:00 19 9 Sur 25 Sudoeste 0 -- -- 41
2020-06-19 13:00:00 18 4 Noroeste 16 Oeste 0 -- -- 61
2020-06-19 12:00:00 16.5 8 Noroeste 19 Noroeste 0 -- -- 64
2020-06-19 11:00:00 14.6 7 Oeste 18 Noroeste 0 -- -- 72
2020-06-19 10:00:00 13.3 6 Nordeste 10 Nordeste 0 -- -- 79
2020-06-19 09:00:00 12 4 Este 9 Este 0 -- -- 89
2020-06-19 08:00:00 10.1 0 Calma 6 Norte 0 -- -- 94
2020-06-19 07:00:00 8.6 3 Oeste 5 Oeste 0 -- -- 94
2020-06-19 06:00:00 9.3 0 Calma 2 Oeste 0 -- -- 93
2020-06-19 05:00:00 9.6 0 Calma 6 Oeste 0 -- -- 96
2020-06-19 04:00:00 9.3 7 Oeste 9 Oeste 0 -- -- 96
2020-06-19 03:00:00 9.1 8 Oeste 9 Oeste 0 -- -- 94
2020-06-19 02:00:00 10 4 Este 5 Este 0 -- -- 91
2020-06-19 01:00:00 10.4 0 Calma 7 Oeste 0 -- -- 90
2020-06-19 00:00:00 10.4 0 Calma 6 Oeste 0 -- -- 89
2020-06-18 23:00:00 11 6 Oeste 15 Noroeste 0 -- -- 87
2020-06-18 22:00:00 12.4 9 Noroeste 19 Noroeste 0 -- -- 84
2020-06-18 21:00:00 14.1 10 Noroeste 18 Noroeste 0 -- -- 77
2020-06-18 20:00:00 16.3 8 Norte 21 Nordeste 0 -- -- 70
2020-06-18 19:00:00 16.6 12 Noroeste 24 Sur 0 -- -- 68
2020-06-18 18:00:00 18.4 13 Oeste 29 Oeste 0 -- -- 49
2020-06-18 17:00:00 18.5 14 Oeste 28 Sudoeste 0 -- -- 56
2020-06-18 16:00:00 18.4 15 Oeste 26 Sudoeste 0 -- -- 58
2020-06-18 15:00:00 17.9 9 Oeste 19 Norte 0 -- -- 58
2020-06-18 14:00:00 17.6 10 Noroeste 24 Noroeste 0 -- -- 59
2020-06-18 13:00:00 15.8 6 Noroeste 18 Este 0 -- -- 65
2020-06-18 12:00:00 14 5 Noroeste 13 Nordeste 0 -- -- 75
2020-06-18 11:00:00 11.8 4 Oeste 13 Noroeste 0 -- -- 87
2020-06-18 10:00:00 10.3 7 Noroeste 13 Oeste 0 -- -- 93
2020-06-18 09:00:00 9.7 0 Calma 8 Este 0 -- -- 100
2020-06-18 08:00:00 9 4 Este 8 Este 0 -- -- 99
2020-06-18 07:00:00 8.6 0 Calma 6 Noroeste 0 -- -- 99
2020-06-18 06:00:00 8.9 0 Calma 5 Nordeste 0 -- -- 98
2020-06-18 05:00:00 9.1 0 Calma 4 Este 0 -- -- 98
2020-06-18 04:00:00 9.3 0 Calma 8 Oeste 0 -- -- 97
2020-06-18 03:00:00 9.9 6 Noroeste 9 Noroeste 0 -- -- 95
2020-06-18 02:00:00 9.9 7 Oeste 9 Oeste 0 -- -- 94
2020-06-18 01:00:00 10 4 Oeste 5 Oeste 0 -- -- 90
2020-06-18 00:00:00 10.3 0 Calma 7 Oeste 0 -- -- 91
2020-06-17 23:00:00 10 6 Oeste 12 Oeste 0 -- -- 93
2020-06-17 22:00:00 10.6 6 Oeste 13 Sudoeste 0 -- -- 90
2020-06-17 21:00:00 11.9 7 Oeste 12 Noroeste 0 -- -- 85
2020-06-17 20:00:00 12.6 7 Oeste 13 Sudoeste 0 -- -- 83
2020-06-17 19:00:00 12.3 6 Oeste 10 Oeste 0 -- -- 88
2020-06-17 18:00:00 11.9 6 Oeste 21 Sudoeste 0.2 -- -- 89
2020-06-17 17:00:00 11.8 13 Oeste 21 Sudoeste 1 -- -- 89
2020-06-17 16:00:00 13.5 3 Nordeste 17 Oeste 0 -- -- 81
2020-06-17 15:00:00 13.1 10 Oeste 19 Oeste 0 -- -- 82
2020-06-17 14:00:00 12.2 12 Oeste 21 Oeste 0 -- -- 89
2020-06-17 13:00:00 12.2 10 Oeste 18 Oeste 0 -- -- 84
2020-06-17 12:00:00 12.4 0 Calma 10 Oeste 0.2 -- -- 85
2020-06-17 11:00:00 11.1 3 Oeste 10 Sudoeste 0 -- -- 93
2020-06-17 10:00:00 9.8 5 Sudoeste 9 Oeste 0 -- -- 97
2020-06-17 09:00:00 9.8 4 Oeste 8 Oeste 0 -- -- 97
2020-06-17 08:00:00 9.5 5 Oeste 9 Oeste 0 -- -- 97
2020-06-17 07:00:00 9.2 3 Noroeste 8 Sudoeste 0 -- -- 97
2020-06-17 06:00:00 9.1 0 Calma 5 Oeste 0 -- -- 97
2020-06-17 05:00:00 9.1 4 Oeste 13 Oeste 0 -- -- 97
2020-06-17 04:00:00 9.3 10 Oeste 12 Sudoeste 0 -- -- 98
2020-06-17 03:00:00 9.5 6 Oeste 11 Oeste 0 -- -- 98
2020-06-17 02:00:00 9.7 6 Oeste 9 Oeste 1 -- -- 97
2020-06-17 01:00:00 10.1 0 Calma 5 Noroeste 0 -- -- 94
2020-06-17 00:00:00 10.2 4 Oeste 10 Noroeste 0 -- -- 94
2020-06-16 23:00:00 10.3 8 Oeste 14 Oeste 0 -- -- 95
2020-06-16 22:00:00 10.6 10 Oeste 19 Oeste 0 -- -- 95
2020-06-16 21:00:00 11.6 12 Oeste 19 Sudoeste 0 -- -- 87
2020-06-16 20:00:00 12.1 14 Oeste 24 Oeste 0 -- -- 84
2020-06-16 19:00:00 13 13 Oeste 25 Oeste 0 -- -- 82
2020-06-16 18:00:00 12.7 15 Oeste 25 Oeste 0 -- -- 84
2020-06-16 17:00:00 12.6 15 Oeste 40 Oeste 0 -- -- 84
2020-06-16 16:00:00 12.7 16 Oeste 32 Sudoeste 0.4 -- -- 89
2020-06-16 15:00:00 13.4 19 Sudoeste 29 Oeste 0 -- -- 81
2020-06-16 14:00:00 12 4 Norte 24 Sur 0 -- -- 90
2020-06-16 13:00:00 11.6 8 Oeste 22 Oeste 0 -- -- 91
2020-06-16 12:00:00 11 20 Oeste 30 Oeste 0.2 -- -- 96
2020-06-16 11:00:00 11.4 18 Oeste 27 Oeste 0.6 -- -- 96
2020-06-16 10:00:00 11 12 Sudoeste 31 Sudoeste 0.2 -- -- 97
2020-06-16 09:00:00 10.7 15 Sudoeste 24 Sudoeste 0 -- -- 96
2020-06-16 08:00:00 10.6 8 Sudoeste 21 Sur 0.2 -- -- 96
2020-06-16 07:00:00 10.4 16 Sudoeste 37 Sudoeste 2.2 -- -- 95
2020-06-16 06:00:00 10.6 19 Sudoeste 36 Sudoeste 0.4 -- -- 95
2020-06-16 05:00:00 10.8 14 Sudoeste 29 Sudoeste 0 -- -- 94
2020-06-16 04:00:00 10.6 7 Sur 15 Sur 0 -- -- 96
2020-06-16 03:00:00 10.4 5 Este 9 Sudeste 1 -- -- 96
2020-06-16 02:00:00 11 4 Este 6 Este 0 -- -- 92
2020-06-16 01:00:00 11.6 5 Sudoeste 17 Oeste 0 -- -- 88
2020-06-16 00:00:00 11.9 12 Sudoeste 28 Sudoeste 0 -- -- 84
2020-06-15 23:00:00 12.3 18 Sudoeste 27 Sudoeste 0 -- -- 82
2020-06-15 22:00:00 12.8 19 Sudoeste 29 Sudoeste 0 -- -- 82
2020-06-15 21:00:00 13 19 Sudoeste 28 Sudoeste 0 -- -- 82
2020-06-15 20:00:00 13 14 Sudoeste 35 Sudoeste 0 -- -- 84
2020-06-15 19:00:00 13.9 24 Sudoeste 36 Sudoeste 0 -- -- 77
2020-06-15 18:00:00 15.1 14 Sudoeste 28 Sudoeste 0 -- -- 74
2020-06-15 17:00:00 14.7 22 Sudoeste 38 Sudoeste 0 -- -- 73
2020-06-15 16:00:00 14.9 13 Sudoeste 31 Sudoeste 0 -- -- 70
2020-06-15 15:00:00 14 7 Sur 14 Sudeste 0 -- -- 77
2020-06-15 14:00:00 12.8 9 Sudoeste 26 Sudoeste 0 -- -- 81
2020-06-15 13:00:00 12.5 18 Sudoeste 25 Sudoeste 0 -- -- 80
2020-06-15 12:00:00 12.7 15 Sudoeste 27 Sur 0 -- -- 78
2020-06-15 11:00:00 12.6 16 Sudoeste 26 Sudoeste 0 -- -- 83
2020-06-15 10:00:00 11.3 14 Sudoeste 32 Sudoeste 0 -- -- 91
2020-06-15 09:00:00 10.2 21 Sudoeste 36 Sudoeste 0 -- -- 95
2020-06-15 08:00:00 10 18 Sudoeste 30 Sudoeste 0 -- -- 95
2020-06-15 07:00:00 9.8 13 Sudoeste 24 Sudoeste 0 -- -- 95
2020-06-15 06:00:00 9.9 14 Sudoeste 29 Sudoeste 0 -- -- 93
2020-06-15 05:00:00 10.1 12 Sudoeste 20 Sudoeste 0 -- -- 89
2020-06-15 04:00:00 10.1 10 Sudoeste 24 Sudoeste 0 -- -- 91
2020-06-15 03:00:00 10.4 9 Sudoeste 22 Sudoeste 0 -- -- 91
2020-06-15 02:00:00 10 14 Sudoeste 22 Sudoeste 0 -- -- 91
2020-06-15 01:00:00 10 17 Sudoeste 24 Sudoeste 0 -- -- 91
2020-06-15 00:00:00 10.5 17 Sudoeste 28 Sudoeste 0 -- -- 90
2020-06-14 23:00:00 10.7 8 Sudoeste 23 Sudoeste 0 -- -- 88
2020-06-14 22:00:00 11.2 12 Sudoeste 25 Sudoeste 0 -- -- 88
2020-06-14 21:00:00 11.8 12 Sudoeste 22 Sudoeste 0 -- -- 88
2020-06-14 20:00:00 11.5 14 Sudoeste 26 Sudoeste 0 -- -- 91
2020-06-14 19:00:00 11.8 17 Sudoeste 31 Sudoeste 0.2 -- -- 90
2020-06-14 18:00:00 12.5 23 Sudoeste 33 Sudoeste 0.2 -- -- 89
2020-06-14 17:00:00 12.7 13 Sudoeste 32 Sudoeste 0 -- -- 89
2020-06-14 16:00:00 12.2 19 Sudoeste 36 Sudoeste 0 -- -- 87
2020-06-14 15:00:00 13.2 15 Sudoeste 36 Sudoeste 0 -- -- 80
2020-06-14 14:00:00 12.7 27 Sudoeste 41 Sudoeste 0 -- -- 86
2020-06-14 13:00:00 11.6 24 Sudoeste 40 Sudoeste 0 -- -- 84
2020-06-14 12:00:00 11.9 26 Sudoeste 37 Sudoeste 0 -- -- 85
2020-06-14 11:00:00 10.7 21 Sudoeste 30 Sudoeste 0 -- -- 88
2020-06-14 10:00:00 11 9 Sudoeste 27 Sudoeste 0 -- -- 87
2020-06-14 09:00:00 9.8 17 Sudoeste 27 Sudoeste 0 -- -- 90
2020-06-14 08:00:00 8.9 9 Sudoeste 33 Sudoeste 0.2 -- -- 92
2020-06-14 07:00:00 9.4 16 Sudoeste 25 Sudoeste 0 -- -- 83
2020-06-14 06:00:00 9.7 7 Sur 13 Sur 0 -- -- 77
2020-06-14 05:00:00 9.4 3 Sur 16 Sudoeste 0 -- -- 79
2020-06-14 04:00:00 9.5 8 Sudoeste 31 Sudoeste 0 -- -- 80
2020-06-14 03:00:00 9.5 22 Sudoeste 32 Sudoeste 0 -- -- 82
2020-06-14 02:00:00 9.3 12 Sudoeste 27 Sudoeste 0 -- -- 86
2020-06-14 01:00:00 9.8 20 Sudoeste 32 Sudoeste 0 -- -- 84
2020-06-14 00:00:00 10.3 21 Sudoeste 32 Sudoeste 0 -- -- 84
2020-06-13 23:00:00 10.4 15 Sudoeste 26 Sudoeste 0 -- -- 83
2020-06-13 22:00:00 11 17 Sudoeste 34 Sudoeste 0 -- -- 82
2020-06-13 21:00:00 11.6 12 Sudoeste 37 Sudoeste 0 -- -- 81
2020-06-13 20:00:00 12.2 18 Sudoeste 41 Sudoeste 0 -- -- 76
2020-06-13 19:00:00 12.1 19 Sudoeste 46 Sudoeste 0 -- -- 78
2020-06-13 18:00:00 12.6 13 Sudoeste 30 Sudoeste 0 -- -- 84
2020-06-13 17:00:00 12.4 14 Sur 33 Sur 0 -- -- 80
2020-06-13 16:00:00 12.2 16 Sudoeste 43 Sur 0 -- -- 80
2020-06-13 15:00:00 11.9 22 Sudoeste 43 Sudoeste 0 -- -- 83
2020-06-13 14:00:00 12 25 Sudoeste 44 Sudoeste 0 -- -- 84
2020-06-13 13:00:00 10.2 24 Sudoeste 43 Sudoeste 0.8 -- -- 95
2020-06-13 12:00:00 10.4 26 Sudoeste 38 Sudoeste 0 -- -- 93
2020-06-13 11:00:00 9.4 19 Sudoeste 37 Sudoeste 0.2 -- -- 95
2020-06-13 10:00:00 9 24 Sudoeste 41 Sudoeste 0.2 -- -- 96
2020-06-13 09:00:00 8.8 20 Sudoeste 44 Sudoeste 0.2 -- -- 96
2020-06-13 08:00:00 8.6 23 Sudoeste 40 Oeste 0.4 -- -- 94
2020-06-13 07:00:00 8.8 23 Sudoeste 43 Sudoeste 0 -- -- 92
2020-06-13 06:00:00 8.6 25 Sudoeste 50 Sudoeste 0 -- -- 93
2020-06-13 05:00:00 8.4 29 Sudoeste 48 Sudoeste 0 -- -- 95
2020-06-13 04:00:00 8.6 23 Sudoeste 45 Oeste 0 -- -- 94
2020-06-13 03:00:00 8.6 26 Sudoeste 48 Sudoeste 0 -- -- 94
2020-06-13 02:00:00 8.7 24 Sudoeste 47 Oeste 0 -- -- 94
2020-06-13 01:00:00 8.9 21 Oeste 39 Oeste 0.2 -- -- 94
2020-06-13 00:00:00 8.9 21 Sudoeste 39 Sudoeste 0 -- -- 94
2020-06-12 23:00:00 9 26 Oeste 44 Oeste 0 -- -- 94
2020-06-12 22:00:00 9.1 24 Oeste 45 Sudoeste 0.8 -- -- 95
2020-06-12 21:00:00 9.6 11 Sudoeste 42 Sudoeste 0 -- -- 92
2020-06-12 20:00:00 10.1 23 Sudoeste 53 Oeste 0 -- -- 86
2020-06-12 19:00:00 11.8 19 Oeste 44 Sudoeste 0 -- -- 74
2020-06-12 18:00:00 13.4 25 Oeste 47 Sudoeste 0 -- -- 70
2020-06-12 17:00:00 11.8 18 Oeste 41 Oeste 2 -- -- 91
2020-06-12 16:00:00 12.9 10 Sudoeste 40 Sudoeste 0 -- -- 83
2020-06-12 15:00:00 12.7 21 Sudoeste 36 Sudoeste 0 -- -- 83
2020-06-12 14:00:00 11.6 15 Sudoeste 39 Sudoeste 0 -- -- 89
2020-06-12 13:00:00 10.3 22 Oeste 46 Sudoeste 2.6 -- -- 96
2020-06-12 12:00:00 8.3 27 Sudoeste 42 Sudoeste 1.4 -- -- 97
2020-06-12 11:00:00 7.8 25 Sudoeste 40 Sudoeste 0.4 -- -- 95
2020-06-12 10:00:00 7.3 23 Sudoeste 36 Sudoeste 0.4 -- -- 94
2020-06-12 09:00:00 7.2 25 Sudoeste 43 Oeste 0 -- -- 94
2020-06-12 08:00:00 7 22 Sudoeste 39 Sudoeste 0 -- -- 94
2020-06-12 07:00:00 6.8 22 Sudoeste 36 Oeste 0 -- -- 94
2020-06-12 06:00:00 6.9 22 Sudoeste 34 Sudoeste 0.2 -- -- 96
2020-06-12 05:00:00 7.2 24 Oeste 42 Oeste 0 -- -- 94
2020-06-12 04:00:00 7.5 27 Sudoeste 46 Oeste 0 -- -- 95
2020-06-12 03:00:00 8.3 22 Oeste 48 Sudoeste 1.2 -- -- 94
2020-06-12 02:00:00 8.4 25 Oeste 62 Sudoeste 1.6 -- -- 95
2020-06-12 01:00:00 8 42 Sudoeste 67 Sudoeste 2.2 -- -- 97
2020-06-12 00:00:00 7.5 35 Sudoeste 61 Sudoeste 1 -- -- 96